Ignatyevo Airport
UHBB : now visible

Airfield :











YOU CAN JOIN US ON...

 
LOGIN :

Register | Disclaimer

   EN    FR    IT 

 









Legend :    VFR   Marginal VFR   IFR   Intensive IFR   Very Intensive IFR
Visi :
Ceiling :
>= 8 km
>= 3000ft
5 to 8 km
1000 to 3000 ft
1500m to 5 km
500 to 1000 ft
800 to 1500m
200 to 500 ft
< 800m
< 200 ft
Symbols :   Thunderstorms  Fog  Heavy snow  Heavy precipitations  Wind > 20 kt






- Airport Elevation : 638 ft
- IATA code : BQS


UHBB - Ignatyevo

CURRENT METAR :
  • 250530Z 36006MPS 9999 SCT033CB 26/11 Q1006 R36R/090061 NOSIG RMK QFE737/0983

EXPIRED METARs :
  • 250500Z 36006MPS 320V040 9999 SCT033 27/11 Q1006 R36R/090061 NOSIG RMK QFE737/0983
  • 250430Z 34007MPS 9999 SCT033 26/13 Q1006 R36R/090061 NOSIG RMK QFE737/0983
  • 250400Z 34007MPS 9999 SCT033 25/12 Q1006 R36R/090061 NOSIG RMK QFE737/0983
  • 250330Z 34007MPS 310V010 9999 SCT033 25/12 Q1007 R36R/090061 NOSIG RMK QFE737/0983
  • 250300Z 35006MPS 9999 SCT033 25/13 Q1007 R36R/090061 NOSIG RMK QFE737/0983
  • 250230Z 34005MPS 320V020 9999 FEW033 23/13 Q1007 R36R/090061 NOSIG RMK QFE738/0984
  • 250200Z 34005MPS 310V010 9999 FEW033 22/13 Q1007 R36R/090061 NOSIG RMK QFE738/0984
  • 250130Z 33005MPS 300V360 9999 FEW033 21/13 Q1007 R36R/090061 NOSIG RMK QFE738/0984
  • 250100Z 35005MPS 310V010 9999 FEW033 21/14 Q1007 R36R/090061 NOSIG RMK QFE738/0984
  • 250030Z 34006MPS 9999 FEW033 20/14 Q1007 R36R/090061 NOSIG RMK QFE738/0984

TAF TAF UHBB
Valid from the 25 at 06:00 until the 26 at 06:00 UTC


250440Z 2506/2606 35003G08MPS 9999 SCT030CB
BECMG 2512/2514 27003MPS
TEMPO 2600/2606 33003MPS 3100 -SHRA BKN025CB
UHBB FIR / Asia



MET'MAP, your aeronautical weather chart ! - Copyright ORBIFLY December 2007 - Disclaimer

ORBIFLY MET'MAP TEAM :

Programming & Development : Alexandra Zaïnal
Original concept : Baudouin d'Aumeries
Technical & hardware support : Manuel Goepfert
Assistance : Marc-Olivier Méhu




SOURCES & CREDITS :

   NOAA       Earth
Advisory